Hauptseite
METAR-TAF:

METAR-TAF

Flughäfen :

Flughafen Žilina

Žilina, Slowakei

Breite: 49-14N, Länge: 018-36-49E, Höhe: 312 m

Beobachtung

Neuester Wetterbericht von vor 29 Minuten, um 07:30 UTC
Wind 8 kt aus Nordost, variierte zwischen Nord/Nordwest und Ost
Temperatur 20°C
Luftfeuchtigkeit 60%
Luftdruck 1019 hPa
Sichtweite 10 km oder mehr
Aufgelockert bewölkt in der Höhe von 3000 ft

METAR: LZZI 240730Z 05008KT 340V080 9999 SCT030 20/12 Q1019

Zeit: 09:59 (07:59 UTC)

Prognose

Neuester Wetterbericht von vor 2 Stunden und 44 Minuten, um 05:15 UTC
Gültige Prognose vom 24 um 06 UTC bis 24 um 15 UTC
Wind 2 kt aus unterschiedlichen Richtungen
Sichtweite 10 km oder mehr
keine Wolken unter 1500 m und keine Kumulonimbus oder Gewitterwolken
Übergehend zu
vom 24 um 06 UTC bis 24 um 08 UTC
Wind 7 kt aus Nord/Nordost

TAF: LZZI 240515Z 2406/2415 VRB02KT CAVOK BECMG 2406/2408 03007KT

Wetterbeobachtungen und Prognosen von mehr als 4000 Flughäfen (METAR und TAF Bericht).

Die verfügbaren Stationen werden durch gelbe und rote Markierungen auf der Karte dargestellt.

Führen Sie die Maus auf sie, um den Namen der Station zu sehen.

Darauf klicken, um die Beobachtung von Wetterbeobachtungen und Prognosen zu sehen.

Um die Karte zu ändern : klicken Sie auf den grünen Tasten mit einem schwarzen Kreuz Zum Vergrößern, auf den grünen Button mit einem Gedankenstrich zu verkleinern, oder auf die grünen Pfeile für benachbarte Karten.


METAR-TAF: